sensor_id;sensor_type;location;lat;lon;timestamp;temperature;humidity
65478;SHT31;53678;39.642;22.430;2023-08-07T00:00:23;26.62;47.46
65478;SHT31;53678;39.642;22.430;2023-08-07T00:02:49;26.66;47.37
65478;SHT31;53678;39.642;22.430;2023-08-07T00:05:15;26.71;47.28
65478;SHT31;53678;39.642;22.430;2023-08-07T00:07:43;26.73;47.18
65478;SHT31;53678;39.642;22.430;2023-08-07T00:10:09;26.69;47.28
65478;SHT31;53678;39.642;22.430;2023-08-07T00:12:35;26.63;47.10
65478;SHT31;53678;39.642;22.430;2023-08-07T00:15:01;26.65;47.14
65478;SHT31;53678;39.642;22.430;2023-08-07T00:17:27;26.66;47.02
65478;SHT31;53678;39.642;22.430;2023-08-07T00:19:53;26.65;46.96
65478;SHT31;53678;39.642;22.430;2023-08-07T00:22:18;26.63;46.93
65478;SHT31;53678;39.642;22.430;2023-08-07T00:24:44;26.66;46.79
65478;SHT31;53678;39.642;22.430;2023-08-07T00:27:10;26.55;46.88
65478;SHT31;53678;39.642;22.430;2023-08-07T00:29:36;26.55;46.92
65478;SHT31;53678;39.642;22.430;2023-08-07T00:32:03;26.60;46.87
65478;SHT31;53678;39.642;22.430;2023-08-07T00:34:29;26.66;46.76
65478;SHT31;53678;39.642;22.430;2023-08-07T00:36:55;26.59;46.65
65478;SHT31;53678;39.642;22.430;2023-08-07T00:39:20;26.58;46.69
65478;SHT31;53678;39.642;22.430;2023-08-07T00:41:46;26.56;46.72
65478;SHT31;53678;39.642;22.430;2023-08-07T00:44:12;26.52;46.77
65478;SHT31;53678;39.642;22.430;2023-08-07T00:46:39;26.48;46.83
65478;SHT31;53678;39.642;22.430;2023-08-07T00:49:05;26.46;46.95
65478;SHT31;53678;39.642;22.430;2023-08-07T00:51:32;26.46;46.77
65478;SHT31;53678;39.642;22.430;2023-08-07T00:53:58;26.41;46.50
65478;SHT31;53678;39.642;22.430;2023-08-07T00:56:26;26.46;46.60
65478;SHT31;53678;39.642;22.430;2023-08-07T00:58:52;26.44;46.61
65478;SHT31;53678;39.642;22.430;2023-08-07T01:01:18;26.32;46.37
65478;SHT31;53678;39.642;22.430;2023-08-07T01:03:45;26.25;46.53
65478;SHT31;53678;39.642;22.430;2023-08-07T01:06:11;26.20;46.43
65478;SHT31;53678;39.642;22.430;2023-08-07T01:08:37;26.22;46.67
65478;SHT31;53678;39.642;22.430;2023-08-07T01:14:02;26.22;46.43
65478;SHT31;53678;39.642;22.430;2023-08-07T01:16:40;26.14;46.34
65478;SHT31;53678;39.642;22.430;2023-08-07T01:19:28;26.13;46.48
65478;SHT31;53678;39.642;22.430;2023-08-07T01:22:11;26.13;46.58
65478;SHT31;53678;39.642;22.430;2023-08-07T01:24:40;26.13;46.66
65478;SHT31;53678;39.642;22.430;2023-08-07T01:30:07;26.04;46.54
65478;SHT31;53678;39.642;22.430;2023-08-07T01:32:43;26.01;46.58
65478;SHT31;53678;39.642;22.430;2023-08-07T01:35:12;25.91;46.88
65478;SHT31;53678;39.642;22.430;2023-08-07T01:37:41;25.88;46.84
65478;SHT31;53678;39.642;22.430;2023-08-07T01:40:08;25.94;46.96
65478;SHT31;53678;39.642;22.430;2023-08-07T01:42:36;25.91;46.89
65478;SHT31;53678;39.642;22.430;2023-08-07T01:45:02;25.88;46.98
65478;SHT31;53678;39.642;22.430;2023-08-07T01:47:29;25.94;46.89
65478;SHT31;53678;39.642;22.430;2023-08-07T01:49:54;25.96;46.99
65478;SHT31;53678;39.642;22.430;2023-08-07T01:52:20;25.79;47.41
65478;SHT31;53678;39.642;22.430;2023-08-07T01:54:46;25.73;47.57
65478;SHT31;53678;39.642;22.430;2023-08-07T01:57:12;25.66;47.69
65478;SHT31;53678;39.642;22.430;2023-08-07T01:59:38;25.50;47.85
65478;SHT31;53678;39.642;22.430;2023-08-07T02:02:04;25.54;47.86
65478;SHT31;53678;39.642;22.430;2023-08-07T02:04:29;25.38;47.72
65478;SHT31;53678;39.642;22.430;2023-08-07T02:06:55;25.33;47.76
65478;SHT31;53678;39.642;22.430;2023-08-07T02:09:22;25.28;47.92
65478;SHT31;53678;39.642;22.430;2023-08-07T02:11:48;25.25;48.07
65478;SHT31;53678;39.642;22.430;2023-08-07T02:14:14;25.25;48.08
65478;SHT31;53678;39.642;22.430;2023-08-07T02:16:40;25.23;48.14
65478;SHT31;53678;39.642;22.430;2023-08-07T02:19:05;25.23;48.24
65478;SHT31;53678;39.642;22.430;2023-08-07T02:21:32;25.19;48.43
65478;SHT31;53678;39.642;22.430;2023-08-07T02:23:57;25.23;48.44
65478;SHT31;53678;39.642;22.430;2023-08-07T02:26:23;25.30;48.33
65478;SHT31;53678;39.642;22.430;2023-08-07T02:28:49;25.40;48.21
65478;SHT31;53678;39.642;22.430;2023-08-07T02:31:14;25.43;48.23
65478;SHT31;53678;39.642;22.430;2023-08-07T02:33:40;25.56;48.40
65478;SHT31;53678;39.642;22.430;2023-08-07T02:36:07;25.62;48.09
65478;SHT31;53678;39.642;22.430;2023-08-07T02:38:33;25.76;47.99
65478;SHT31;53678;39.642;22.430;2023-08-07T02:40:59;25.74;47.81
65478;SHT31;53678;39.642;22.430;2023-08-07T02:43:25;25.58;48.24
65478;SHT31;53678;39.642;22.430;2023-08-07T02:45:52;25.47;48.72
65478;SHT31;53678;39.642;22.430;2023-08-07T02:48:18;25.51;48.67
65478;SHT31;53678;39.642;22.430;2023-08-07T02:50:45;25.60;48.69
65478;SHT31;53678;39.642;22.430;2023-08-07T02:53:11;25.66;48.33
65478;SHT31;53678;39.642;22.430;2023-08-07T02:55:37;25.74;48.31
65478;SHT31;53678;39.642;22.430;2023-08-07T02:58:03;25.77;48.39
65478;SHT31;53678;39.642;22.430;2023-08-07T03:00:28;25.77;48.56
65478;SHT31;53678;39.642;22.430;2023-08-07T03:02:54;25.76;48.61
65478;SHT31;53678;39.642;22.430;2023-08-07T03:05:20;25.81;48.53
65478;SHT31;53678;39.642;22.430;2023-08-07T03:07:45;25.86;48.15
65478;SHT31;53678;39.642;22.430;2023-08-07T03:10:11;25.79;48.12
65478;SHT31;53678;39.642;22.430;2023-08-07T03:12:37;25.76;48.38
65478;SHT31;53678;39.642;22.430;2023-08-07T03:15:05;25.77;48.50
65478;SHT31;53678;39.642;22.430;2023-08-07T03:17:31;25.77;48.57
65478;SHT31;53678;39.642;22.430;2023-08-07T03:19:56;25.97;48.30
65478;SHT31;53678;39.642;22.430;2023-08-07T03:22:22;25.86;48.54
65478;SHT31;53678;39.642;22.430;2023-08-07T03:24:48;25.71;49.05
65478;SHT31;53678;39.642;22.430;2023-08-07T03:27:14;25.65;49.17
65478;SHT31;53678;39.642;22.430;2023-08-07T03:29:40;25.59;49.81
65478;SHT31;53678;39.642;22.430;2023-08-07T03:32:06;25.40;50.54
65478;SHT31;53678;39.642;22.430;2023-08-07T03:34:34;25.26;51.15
65478;SHT31;53678;39.642;22.430;2023-08-07T03:37:00;25.16;51.44
65478;SHT31;53678;39.642;22.430;2023-08-07T03:39:26;25.05;51.92
65478;SHT31;53678;39.642;22.430;2023-08-07T03:41:52;25.09;51.80
65478;SHT31;53678;39.642;22.430;2023-08-07T03:44:18;25.18;51.86
65478;SHT31;53678;39.642;22.430;2023-08-07T03:46:43;25.63;50.90
65478;SHT31;53678;39.642;22.430;2023-08-07T03:49:09;26.29;49.74
65478;SHT31;53678;39.642;22.430;2023-08-07T03:51:35;26.63;48.91
65478;SHT31;53678;39.642;22.430;2023-08-07T03:54:00;26.87;48.49
65478;SHT31;53678;39.642;22.430;2023-08-07T03:56:26;26.80;48.57
65478;SHT31;53678;39.642;22.430;2023-08-07T03:58:52;27.24;47.90
65478;SHT31;53678;39.642;22.430;2023-08-07T04:01:20;27.31;47.69
65478;SHT31;53678;39.642;22.430;2023-08-07T04:03:47;28.03;46.63
65478;SHT31;53678;39.642;22.430;2023-08-07T04:06:13;28.53;45.87
65478;SHT31;53678;39.642;22.430;2023-08-07T04:08:42;29.25;44.55
65478;SHT31;53678;39.642;22.430;2023-08-07T04:11:10;29.60;43.77
65478;SHT31;53678;39.642;22.430;2023-08-07T04:13:36;30.13;43.24
65478;SHT31;53678;39.642;22.430;2023-08-07T04:16:02;30.14;42.74
65478;SHT31;53678;39.642;22.430;2023-08-07T04:18:30;30.36;43.04
65478;SHT31;53678;39.642;22.430;2023-08-07T04:20:57;29.55;44.38
65478;SHT31;53678;39.642;22.430;2023-08-07T04:23:23;28.68;46.04
65478;SHT31;53678;39.642;22.430;2023-08-07T04:25:49;28.26;46.86
65478;SHT31;53678;39.642;22.430;2023-08-07T04:28:16;28.22;46.91
65478;SHT31;53678;39.642;22.430;2023-08-07T04:30:43;28.54;46.58
65478;SHT31;53678;39.642;22.430;2023-08-07T04:33:08;28.80;46.30
65478;SHT31;53678;39.642;22.430;2023-08-07T04:35:34;29.12;45.65
65478;SHT31;53678;39.642;22.430;2023-08-07T04:38:00;29.16;45.62
65478;SHT31;53678;39.642;22.430;2023-08-07T04:40:27;28.80;46.12
65478;SHT31;53678;39.642;22.430;2023-08-07T04:42:54;28.99;46.08
65478;SHT31;53678;39.642;22.430;2023-08-07T04:45:20;29.09;45.62
65478;SHT31;53678;39.642;22.430;2023-08-07T04:47:46;29.26;45.52
65478;SHT31;53678;39.642;22.430;2023-08-07T04:50:11;28.67;46.43
65478;SHT31;53678;39.642;22.430;2023-08-07T04:52:37;29.08;46.08
65478;SHT31;53678;39.642;22.430;2023-08-07T04:55:04;29.59;45.27
65478;SHT31;53678;39.642;22.430;2023-08-07T04:57:29;29.62;45.17
65478;SHT31;53678;39.642;22.430;2023-08-07T04:59:55;29.97;44.58
65478;SHT31;53678;39.642;22.430;2023-08-07T05:02:21;30.23;44.22
65478;SHT31;53678;39.642;22.430;2023-08-07T05:04:47;30.34;44.05
65478;SHT31;53678;39.642;22.430;2023-08-07T05:07:12;30.71;43.47
65478;SHT31;53678;39.642;22.430;2023-08-07T05:09:38;30.51;44.16
65478;SHT31;53678;39.642;22.430;2023-08-07T05:12:05;30.90;43.42
65478;SHT31;53678;39.642;22.430;2023-08-07T05:14:32;30.92;43.75
65478;SHT31;53678;39.642;22.430;2023-08-07T05:16:58;32.12;41.92
65478;SHT31;53678;39.642;22.430;2023-08-07T05:19:25;32.70;40.92
65478;SHT31;53678;39.642;22.430;2023-08-07T05:21:51;33.46;40.10
65478;SHT31;53678;39.642;22.430;2023-08-07T05:24:17;33.96;39.36
65478;SHT31;53678;39.642;22.430;2023-08-07T05:26:43;34.20;38.91
65478;SHT31;53678;39.642;22.430;2023-08-07T05:29:09;34.65;38.54
65478;SHT31;53678;39.642;22.430;2023-08-07T05:31:34;35.00;37.86
65478;SHT31;53678;39.642;22.430;2023-08-07T05:34:01;35.19;37.56
65478;SHT31;53678;39.642;22.430;2023-08-07T05:36:27;35.00;37.79
65478;SHT31;53678;39.642;22.430;2023-08-07T05:38:53;35.15;37.47
65478;SHT31;53678;39.642;22.430;2023-08-07T05:41:20;34.88;37.75
65478;SHT31;53678;39.642;22.430;2023-08-07T05:43:46;34.79;38.04
65478;SHT31;53678;39.642;22.430;2023-08-07T05:46:11;34.61;38.05
65478;SHT31;53678;39.642;22.430;2023-08-07T05:48:37;34.11;38.64
65478;SHT31;53678;39.642;22.430;2023-08-07T05:51:03;33.70;39.42
65478;SHT31;53678;39.642;22.430;2023-08-07T05:53:29;33.46;39.70
65478;SHT31;53678;39.642;22.430;2023-08-07T05:55:55;32.70;40.58
65478;SHT31;53678;39.642;22.430;2023-08-07T05:58:21;32.37;41.38
65478;SHT31;53678;39.642;22.430;2023-08-07T06:00:47;31.92;42.11
65478;SHT31;53678;39.642;22.430;2023-08-07T06:03:12;31.69;42.16
65478;SHT31;53678;39.642;22.430;2023-08-07T06:05:38;31.69;41.82
65478;SHT31;53678;39.642;22.430;2023-08-07T06:08:04;31.11;41.92
65478;SHT31;53678;39.642;22.430;2023-08-07T06:10:30;30.86;41.93
65478;SHT31;53678;39.642;22.430;2023-08-07T06:12:56;30.93;41.76
65478;SHT31;53678;39.642;22.430;2023-08-07T06:15:21;30.84;42.07
65478;SHT31;53678;39.642;22.430;2023-08-07T06:17:47;30.86;40.87
65478;SHT31;53678;39.642;22.430;2023-08-07T06:20:13;30.71;40.97
65478;SHT31;53678;39.642;22.430;2023-08-07T06:22:40;30.71;41.81
65478;SHT31;53678;39.642;22.430;2023-08-07T06:25:07;30.59;41.70
65478;SHT31;53678;39.642;22.430;2023-08-07T06:27:34;29.78;43.00
65478;SHT31;53678;39.642;22.430;2023-08-07T06:29:59;30.41;42.53
65478;SHT31;53678;39.642;22.430;2023-08-07T06:32:25;30.82;41.91
65478;SHT31;53678;39.642;22.430;2023-08-07T06:34:52;30.07;42.96
65478;SHT31;53678;39.642;22.430;2023-08-07T06:37:19;30.92;42.25
65478;SHT31;53678;39.642;22.430;2023-08-07T06:39:44;30.86;42.08
65478;SHT31;53678;39.642;22.430;2023-08-07T06:42:12;30.76;42.40
65478;SHT31;53678;39.642;22.430;2023-08-07T06:44:41;30.78;42.31
65478;SHT31;53678;39.642;22.430;2023-08-07T06:47:07;31.16;41.60
65478;SHT31;53678;39.642;22.430;2023-08-07T06:49:33;31.61;41.25
65478;SHT31;53678;39.642;22.430;2023-08-07T06:51:58;31.82;40.51
65478;SHT31;53678;39.642;22.430;2023-08-07T06:54:24;32.13;40.35
65478;SHT31;53678;39.642;22.430;2023-08-07T06:56:50;32.16;40.31
65478;SHT31;53678;39.642;22.430;2023-08-07T06:59:15;31.34;40.90
65478;SHT31;53678;39.642;22.430;2023-08-07T07:01:41;31.07;41.16
65478;SHT31;53678;39.642;22.430;2023-08-07T07:04:07;31.07;41.75
65478;SHT31;53678;39.642;22.430;2023-08-07T07:06:33;32.01;40.42
65478;SHT31;53678;39.642;22.430;2023-08-07T07:08:58;32.41;39.27
65478;SHT31;53678;39.642;22.430;2023-08-07T07:11:24;32.81;39.37
65478;SHT31;53678;39.642;22.430;2023-08-07T07:13:51;32.68;40.01
65478;SHT31;53678;39.642;22.430;2023-08-07T07:16:18;31.82;41.14
65478;SHT31;53678;39.642;22.430;2023-08-07T07:18:43;32.06;40.51
65478;SHT31;53678;39.642;22.430;2023-08-07T07:21:09;31.95;40.48
65478;SHT31;53678;39.642;22.430;2023-08-07T07:23:35;32.26;40.19
65478;SHT31;53678;39.642;22.430;2023-08-07T07:26:00;32.47;39.84
65478;SHT31;53678;39.642;22.430;2023-08-07T07:28:27;32.76;39.55
65478;SHT31;53678;39.642;22.430;2023-08-07T07:30:53;32.92;39.46
65478;SHT31;53678;39.642;22.430;2023-08-07T07:33:18;32.92;39.04
65478;SHT31;53678;39.642;22.430;2023-08-07T07:35:44;33.24;38.81
65478;SHT31;53678;39.642;22.430;2023-08-07T07:38:11;32.74;39.12
65478;SHT31;53678;39.642;22.430;2023-08-07T07:40:37;32.85;39.18
65478;SHT31;53678;39.642;22.430;2023-08-07T07:43:03;32.90;39.19
65478;SHT31;53678;39.642;22.430;2023-08-07T07:45:29;33.07;38.98
65478;SHT31;53678;39.642;22.430;2023-08-07T07:47:55;33.31;38.65
65478;SHT31;53678;39.642;22.430;2023-08-07T07:50:21;33.49;38.65
65478;SHT31;53678;39.642;22.430;2023-08-07T07:52:46;33.72;38.05
65478;SHT31;53678;39.642;22.430;2023-08-07T07:55:12;33.53;38.42
65478;SHT31;53678;39.642;22.430;2023-08-07T07:57:39;33.85;37.78
65478;SHT31;53678;39.642;22.430;2023-08-07T08:00:06;33.94;37.60
65478;SHT31;53678;39.642;22.430;2023-08-07T08:02:37;33.05;38.75
65478;SHT31;53678;39.642;22.430;2023-08-07T08:05:03;33.26;38.89
65478;SHT31;53678;39.642;22.430;2023-08-07T08:07:28;33.31;38.35
65478;SHT31;53678;39.642;22.430;2023-08-07T08:09:54;32.88;38.46
65478;SHT31;53678;39.642;22.430;2023-08-07T08:12:21;33.31;37.78
65478;SHT31;53678;39.642;22.430;2023-08-07T08:14:47;33.66;37.33
65478;SHT31;53678;39.642;22.430;2023-08-07T08:17:13;33.88;36.80
65478;SHT31;53678;39.642;22.430;2023-08-07T08:19:39;33.72;36.75
65478;SHT31;53678;39.642;22.430;2023-08-07T08:22:05;33.61;36.85
65478;SHT31;53678;39.642;22.430;2023-08-07T08:24:31;33.00;37.56
65478;SHT31;53678;39.642;22.430;2023-08-07T08:26:57;33.05;37.78
65478;SHT31;53678;39.642;22.430;2023-08-07T08:29:23;33.22;37.78
65478;SHT31;53678;39.642;22.430;2023-08-07T08:31:48;32.77;38.02
65478;SHT31;53678;39.642;22.430;2023-08-07T08:34:14;33.24;38.06
65478;SHT31;53678;39.642;22.430;2023-08-07T08:36:40;33.79;37.38
65478;SHT31;53678;39.642;22.430;2023-08-07T08:39:06;33.90;36.63
65478;SHT31;53678;39.642;22.430;2023-08-07T08:41:31;33.88;36.67
65478;SHT31;53678;39.642;22.430;2023-08-07T08:43:59;33.00;37.82
65478;SHT31;53678;39.642;22.430;2023-08-07T08:46:28;33.56;37.03
65478;SHT31;53678;39.642;22.430;2023-08-07T08:48:57;33.49;36.55
65478;SHT31;53678;39.642;22.430;2023-08-07T08:51:24;33.03;37.88
65478;SHT31;53678;39.642;22.430;2023-08-07T08:53:52;33.01;37.92
65478;SHT31;53678;39.642;22.430;2023-08-07T08:56:19;33.42;37.67
65478;SHT31;53678;39.642;22.430;2023-08-07T08:58:49;33.25;37.39
65478;SHT31;53678;39.642;22.430;2023-08-07T09:01:17;33.10;37.12
65478;SHT31;53678;39.642;22.430;2023-08-07T09:03:46;32.33;38.17
65478;SHT31;53678;39.642;22.430;2023-08-07T09:06:13;32.97;37.75
65478;SHT31;53678;39.642;22.430;2023-08-07T09:08:42;32.66;37.85
65478;SHT31;53678;39.642;22.430;2023-08-07T09:11:08;32.57;37.61
65478;SHT31;53678;39.642;22.430;2023-08-07T09:13:37;33.10;37.38
65478;SHT31;53678;39.642;22.430;2023-08-07T09:16:04;33.45;37.22
65478;SHT31;53678;39.642;22.430;2023-08-07T09:18:32;33.77;36.49
65478;SHT31;53678;39.642;22.430;2023-08-07T09:20:58;33.94;36.26
65478;SHT31;53678;39.642;22.430;2023-08-07T09:23:24;33.93;35.49
65478;SHT31;53678;39.642;22.430;2023-08-07T09:25:59;33.88;36.53
65478;SHT31;53678;39.642;22.430;2023-08-07T09:28:26;34.07;36.05
65478;SHT31;53678;39.642;22.430;2023-08-07T09:30:52;33.80;36.16
65478;SHT31;53678;39.642;22.430;2023-08-07T09:33:29;33.76;36.17
65478;SHT31;53678;39.642;22.430;2023-08-07T09:36:01;33.46;36.42
65478;SHT31;53678;39.642;22.430;2023-08-07T09:38:31;33.59;36.97
65478;SHT31;53678;39.642;22.430;2023-08-07T09:40:59;33.46;36.50
65478;SHT31;53678;39.642;22.430;2023-08-07T09:43:25;33.74;36.40
65478;SHT31;53678;39.642;22.430;2023-08-07T09:46:02;33.76;36.39
65478;SHT31;53678;39.642;22.430;2023-08-07T09:48:28;34.11;35.93
65478;SHT31;53678;39.642;22.430;2023-08-07T09:50:54;34.20;36.53
65478;SHT31;53678;39.642;22.430;2023-08-07T09:53:27;34.28;35.47
65478;SHT31;53678;39.642;22.430;2023-08-07T09:55:55;34.09;35.52
65478;SHT31;53678;39.642;22.430;2023-08-07T09:58:21;33.62;36.17
65478;SHT31;53678;39.642;22.430;2023-08-07T10:00:47;33.39;36.60
65478;SHT31;53678;39.642;22.430;2023-08-07T10:03:14;33.17;36.73
65478;SHT31;53678;39.642;22.430;2023-08-07T10:05:41;33.42;36.57
65478;SHT31;53678;39.642;22.430;2023-08-07T10:08:07;33.68;36.77
65478;SHT31;53678;39.642;22.430;2023-08-07T10:10:33;34.09;35.74
65478;SHT31;53678;39.642;22.430;2023-08-07T10:13:03;33.96;34.94
65478;SHT31;53678;39.642;22.430;2023-08-07T10:15:29;34.33;34.00
65478;SHT31;53678;39.642;22.430;2023-08-07T10:17:56;34.14;33.79
65478;SHT31;53678;39.642;22.430;2023-08-07T10:20:23;34.23;34.28
65478;SHT31;53678;39.642;22.430;2023-08-07T10:22:50;34.23;34.87
65478;SHT31;53678;39.642;22.430;2023-08-07T10:25:20;34.25;35.03
65478;SHT31;53678;39.642;22.430;2023-08-07T10:27:48;33.70;35.62
65478;SHT31;53678;39.642;22.430;2023-08-07T10:30:15;33.76;35.82
65478;SHT31;53678;39.642;22.430;2023-08-07T10:32:43;33.80;35.65
65478;SHT31;53678;39.642;22.430;2023-08-07T10:35:09;33.96;35.86
65478;SHT31;53678;39.642;22.430;2023-08-07T10:37:42;34.16;35.30
65478;SHT31;53678;39.642;22.430;2023-08-07T10:40:08;34.31;35.31
65478;SHT31;53678;39.642;22.430;2023-08-07T10:42:59;34.41;35.15
65478;SHT31;53678;39.642;22.430;2023-08-07T10:45:27;34.50;34.77
65478;SHT31;53678;39.642;22.430;2023-08-07T10:48:05;34.50;34.71
65478;SHT31;53678;39.642;22.430;2023-08-07T10:50:32;34.51;34.43
65478;SHT31;53678;39.642;22.430;2023-08-07T10:53:02;34.50;34.43
65478;SHT31;53678;39.642;22.430;2023-08-07T10:55:43;34.00;34.85
65478;SHT31;53678;39.642;22.430;2023-08-07T10:58:32;33.70;35.39
65478;SHT31;53678;39.642;22.430;2023-08-07T11:03:53;33.07;36.08
65478;SHT31;53678;39.642;22.430;2023-08-07T11:06:40;33.25;35.98
65478;SHT31;53678;39.642;22.430;2023-08-07T11:09:08;32.92;36.01
65478;SHT31;53678;39.642;22.430;2023-08-07T11:11:38;33.21;35.77
65478;SHT31;53678;39.642;22.430;2023-08-07T11:14:12;33.85;35.42
65478;SHT31;53678;39.642;22.430;2023-08-07T11:16:39;34.04;34.97
65478;SHT31;53678;39.642;22.430;2023-08-07T11:19:05;34.01;34.99
65478;SHT31;53678;39.642;22.430;2023-08-07T11:21:32;34.06;35.31
65478;SHT31;53678;39.642;22.430;2023-08-07T11:23:58;34.19;34.91
65478;SHT31;53678;39.642;22.430;2023-08-07T11:26:24;33.74;35.19
65478;SHT31;53678;39.642;22.430;2023-08-07T11:28:56;33.69;35.26
65478;SHT31;53678;39.642;22.430;2023-08-07T11:31:23;33.99;35.22
65478;SHT31;53678;39.642;22.430;2023-08-07T11:33:51;34.33;34.74
65478;SHT31;53678;39.642;22.430;2023-08-07T11:36:17;34.45;33.75
65478;SHT31;53678;39.642;22.430;2023-08-07T11:38:43;34.72;33.51
65478;SHT31;53678;39.642;22.430;2023-08-07T11:41:11;34.98;33.21
65478;SHT31;53678;39.642;22.430;2023-08-07T11:43:38;35.03;32.20
65478;SHT31;53678;39.642;22.430;2023-08-07T11:46:06;34.88;33.33
65478;SHT31;53678;39.642;22.430;2023-08-07T11:48:33;34.89;33.91
65478;SHT31;53678;39.642;22.430;2023-08-07T11:51:00;35.10;34.58
65478;SHT31;53678;39.642;22.430;2023-08-07T11:53:29;35.09;34.13
65478;SHT31;53678;39.642;22.430;2023-08-07T11:58:36;35.09;33.61
65478;SHT31;53678;39.642;22.430;2023-08-07T12:01:04;35.25;33.78
65478;SHT31;53678;39.642;22.430;2023-08-07T12:03:35;35.23;33.86
65478;SHT31;53678;39.642;22.430;2023-08-07T12:06:06;35.13;33.66
65478;SHT31;53678;39.642;22.430;2023-08-07T12:08:39;35.32;33.72
65478;SHT31;53678;39.642;22.430;2023-08-07T12:11:12;35.00;33.37
65478;SHT31;53678;39.642;22.430;2023-08-07T12:13:40;34.88;33.38
65478;SHT31;53678;39.642;22.430;2023-08-07T12:16:06;34.81;33.65
65478;SHT31;53678;39.642;22.430;2023-08-07T12:18:34;34.71;33.81
65478;SHT31;53678;39.642;22.430;2023-08-07T12:21:06;34.09;34.39
65478;SHT31;53678;39.642;22.430;2023-08-07T12:23:33;34.31;33.79
65478;SHT31;53678;39.642;22.430;2023-08-07T12:26:00;34.52;33.82
65478;SHT31;53678;39.642;22.430;2023-08-07T12:28:27;34.68;33.72
65478;SHT31;53678;39.642;22.430;2023-08-07T12:30:53;34.84;32.57
65478;SHT31;53678;39.642;22.430;2023-08-07T12:33:19;35.22;32.25
65478;SHT31;53678;39.642;22.430;2023-08-07T12:35:45;35.39;31.97
65478;SHT31;53678;39.642;22.430;2023-08-07T12:38:11;35.51;31.99
65478;SHT31;53678;39.642;22.430;2023-08-07T12:40:39;35.25;32.28
65478;SHT31;53678;39.642;22.430;2023-08-07T12:43:06;35.36;32.68
65478;SHT31;53678;39.642;22.430;2023-08-07T12:45:33;35.29;32.44
65478;SHT31;53678;39.642;22.430;2023-08-07T12:47:59;35.06;33.30
65478;SHT31;53678;39.642;22.430;2023-08-07T12:50:26;34.75;33.53
65478;SHT31;53678;39.642;22.430;2023-08-07T12:52:51;35.03;33.58
65478;SHT31;53678;39.642;22.430;2023-08-07T12:55:17;35.06;32.91
65478;SHT31;53678;39.642;22.430;2023-08-07T12:57:43;35.06;33.16
65478;SHT31;53678;39.642;22.430;2023-08-07T13:00:10;35.16;32.85
65478;SHT31;53678;39.642;22.430;2023-08-07T13:02:44;35.26;32.33
65478;SHT31;53678;39.642;22.430;2023-08-07T13:05:10;35.25;32.70
65478;SHT31;53678;39.642;22.430;2023-08-07T13:07:36;35.51;32.29
65478;SHT31;53678;39.642;22.430;2023-08-07T13:10:04;35.36;32.42
65478;SHT31;53678;39.642;22.430;2023-08-07T13:12:34;35.65;32.36
65478;SHT31;53678;39.642;22.430;2023-08-07T13:15:00;35.65;32.04
65478;SHT31;53678;39.642;22.430;2023-08-07T13:17:26;35.43;32.22
65478;SHT31;53678;39.642;22.430;2023-08-07T13:19:52;35.23;32.59
65478;SHT31;53678;39.642;22.430;2023-08-07T13:22:17;35.27;32.46
65478;SHT31;53678;39.642;22.430;2023-08-07T13:24:43;35.26;32.43
65478;SHT31;53678;39.642;22.430;2023-08-07T13:27:09;35.27;32.19
65478;SHT31;53678;39.642;22.430;2023-08-07T13:29:34;35.35;32.50
65478;SHT31;53678;39.642;22.430;2023-08-07T13:32:02;35.17;32.28
65478;SHT31;53678;39.642;22.430;2023-08-07T13:34:29;35.15;32.38
65478;SHT31;53678;39.642;22.430;2023-08-07T13:36:55;35.05;32.70
65478;SHT31;53678;39.642;22.430;2023-08-07T13:39:21;35.30;32.74
65478;SHT31;53678;39.642;22.430;2023-08-07T13:41:46;35.43;32.61
65478;SHT31;53678;39.642;22.430;2023-08-07T13:44:12;35.60;32.33
65478;SHT31;53678;39.642;22.430;2023-08-07T13:46:38;35.64;32.29
65478;SHT31;53678;39.642;22.430;2023-08-07T13:49:04;35.50;32.15
65478;SHT31;53678;39.642;22.430;2023-08-07T13:51:29;35.65;32.33
65478;SHT31;53678;39.642;22.430;2023-08-07T13:53:55;35.72;32.53
65478;SHT31;53678;39.642;22.430;2023-08-07T13:56:20;35.84;32.29
65478;SHT31;53678;39.642;22.430;2023-08-07T13:58:46;35.81;32.15
65478;SHT31;53678;39.642;22.430;2023-08-07T14:01:12;35.72;32.41
65478;SHT31;53678;39.642;22.430;2023-08-07T14:03:38;35.63;32.36
65478;SHT31;53678;39.642;22.430;2023-08-07T14:06:03;35.42;32.69
65478;SHT31;53678;39.642;22.430;2023-08-07T14:08:29;35.29;32.68
65478;SHT31;53678;39.642;22.430;2023-08-07T14:10:55;35.49;32.58
65478;SHT31;53678;39.642;22.430;2023-08-07T14:13:21;35.46;32.74
65478;SHT31;53678;39.642;22.430;2023-08-07T14:15:46;35.53;32.74
65478;SHT31;53678;39.642;22.430;2023-08-07T14:18:12;35.54;32.90
65478;SHT31;53678;39.642;22.430;2023-08-07T14:20:40;35.63;32.63
65478;SHT31;53678;39.642;22.430;2023-08-07T14:23:06;35.51;32.35
65478;SHT31;53678;39.642;22.430;2023-08-07T14:25:32;35.32;32.76
65478;SHT31;53678;39.642;22.430;2023-08-07T14:27:57;35.16;33.10
65478;SHT31;53678;39.642;22.430;2023-08-07T14:30:23;35.06;33.16
65478;SHT31;53678;39.642;22.430;2023-08-07T14:32:49;35.09;32.92
65478;SHT31;53678;39.642;22.430;2023-08-07T14:35:15;34.84;34.96
65478;SHT31;53678;39.642;22.430;2023-08-07T14:37:41;34.36;35.71
65478;SHT31;53678;39.642;22.430;2023-08-07T14:40:07;33.88;36.73
65478;SHT31;53678;39.642;22.430;2023-08-07T14:42:33;33.86;36.85
65478;SHT31;53678;39.642;22.430;2023-08-07T14:44:59;33.97;36.78
65478;SHT31;53678;39.642;22.430;2023-08-07T14:47:25;33.59;36.63
65478;SHT31;53678;39.642;22.430;2023-08-07T14:49:51;33.36;36.98
65478;SHT31;53678;39.642;22.430;2023-08-07T14:52:17;33.35;36.92
65478;SHT31;53678;39.642;22.430;2023-08-07T14:54:43;33.35;37.04
65478;SHT31;53678;39.642;22.430;2023-08-07T14:57:09;33.18;36.48
65478;SHT31;53678;39.642;22.430;2023-08-07T14:59:34;33.26;36.33
65478;SHT31;53678;39.642;22.430;2023-08-07T15:02:00;33.34;36.12
65478;SHT31;53678;39.642;22.430;2023-08-07T15:04:26;33.15;36.23
65478;SHT31;53678;39.642;22.430;2023-08-07T15:06:52;33.21;35.91
65478;SHT31;53678;39.642;22.430;2023-08-07T15:09:18;33.35;35.78
65478;SHT31;53678;39.642;22.430;2023-08-07T15:11:47;33.42;35.64
65478;SHT31;53678;39.642;22.430;2023-08-07T15:14:13;33.28;35.87
65478;SHT31;53678;39.642;22.430;2023-08-07T15:16:39;33.25;35.76
65478;SHT31;53678;39.642;22.430;2023-08-07T15:19:05;33.10;35.82
65478;SHT31;53678;39.642;22.430;2023-08-07T15:21:31;33.12;35.39
65478;SHT31;53678;39.642;22.430;2023-08-07T15:23:56;33.00;35.15